Etusivu
METAR-TAF:

METAR-TAF

Lentoasemat :

Taškent, Uzbekistan

Leveyspiiri: 41-16N, Pituuspiiri: 069-16E, korkeus merenpinnasta: 489 m

Tämänhetkinen sää

Tämä raportti tehtiin 28 minuuttia sitten, kello 04.00 UTC
Tuuli 6 kn idästä/koillisesta, vaihdellen pohjoisen/luoteen ja idän välillä
Lämpötila 32°C
Kosteus 24%
Ilmanpaine 1005 hPa
Näkyvyys 10 km tai enemmän
ei pilviä alle 1500 m:ssä eikä cumulonimbus-pilviä

METAR: UTTT 220400Z 06006KT 340V100 CAVOK 32/09 Q1005 R08R/CLRD70 NOSIG

Aika: 09:28 (04:28 UTC)

Sääennuste

Tämä raportti tehtiin 5 tuntia ja 28 minuuttia sitten, kello 23.00 UTC
Ennuste voimassa 22. päivästä klo 00 UTC - 22. päivään klo 24 UTC
Tuuli 10 kn idästä/koillisesta
Näkyvyys: 7000 m
Ajoittain
22. päivästä klo 06 UTC - 22. päivään klo 16 UTC
Tuuli 12 kn luoteesta puuskistuen 22 kn:hen

TAF: UTTT 212300Z 2200/2224 07010KT 7000 NSC TX40/2211Z TN25/2200Z TEMPO 2206/2216 32012G22KT

Säähavainnot ja -ennusteet yli 4000 lentoasemalta (METAR- ja TAF-raportit).

Käytössä olevat sääasemat on merkitty karttaan keltaisilla ja punaisilla pisteillä.

Aseta hiiri pisteen päälle nähdäksesi sääaseman nimen.

Klikkaa sitten nähdäksesi säähavainnot ja -ennusteet.

Kartan vaihtaminen: klikkaa mustalla rastilla varustettuja vihreitä pisteitä, niin voit zoomata sisään; viivalla varustettua vihreää pistettä, niin voit zoomata ulos tai vihreitä nuolia, niin pääset viereisille kartoille.


METAR-TAF: